createdAt,value
2023-01-29T00:01:08.680Z,8.70
2023-01-29T00:03:36.588Z,9.15
2023-01-29T00:06:08.010Z,8.32
2023-01-29T00:08:38.924Z,10.40
2023-01-29T00:11:07.578Z,9.25
2023-01-29T00:13:35.305Z,9.80
2023-01-29T00:16:03.104Z,9.02
2023-01-29T00:18:31.178Z,10.05
2023-01-29T00:20:59.437Z,9.27
2023-01-29T00:23:27.204Z,9.23
2023-01-29T00:25:55.025Z,11.25
2023-01-29T00:28:22.815Z,11.18
2023-01-29T00:30:50.701Z,11.43
2023-01-29T00:33:18.248Z,9.20
2023-01-29T00:35:47.117Z,9.30
2023-01-29T00:38:14.929Z,9.93
2023-01-29T00:41:01.035Z,10.30
2023-01-29T00:43:47.062Z,9.60
2023-01-29T00:46:14.896Z,10.73
2023-01-29T00:48:42.503Z,9.63
2023-01-29T00:51:10.869Z,10.20
2023-01-29T00:53:38.492Z,9.90
2023-01-29T00:56:06.439Z,10.55
2023-01-29T00:58:36.810Z,9.90
2023-01-29T01:01:04.759Z,8.48
2023-01-29T01:03:35.395Z,10.05
2023-01-29T01:06:07.067Z,9.70
2023-01-29T01:08:53.002Z,10.15
2023-01-29T01:11:21.110Z,10.40
2023-01-29T01:13:48.634Z,11.48
2023-01-29T01:16:18.849Z,10.27
2023-01-29T01:18:46.383Z,10.18
2023-01-29T01:21:14.048Z,10.32
2023-01-29T01:23:41.575Z,8.82
2023-01-29T01:26:11.100Z,10.80
2023-01-29T01:28:39.706Z,11.02
2023-01-29T01:31:11.468Z,8.95
2023-01-29T01:33:39.266Z,10.32
2023-01-29T01:36:11.747Z,11.35
2023-01-29T01:38:45.362Z,9.90
2023-01-29T01:41:14.760Z,10.27
2023-01-29T01:43:58.292Z,9.40
2023-01-29T01:46:28.827Z,9.73
2023-01-29T01:48:59.392Z,9.45
2023-01-29T01:51:27.320Z,11.07
2023-01-29T01:54:09.971Z,9.73
2023-01-29T01:56:41.510Z,10.23
2023-01-29T01:59:18.897Z,11.20
2023-01-29T02:01:50.656Z,10.27
2023-01-29T02:04:39.816Z,10.90
2023-01-29T02:07:27.049Z,11.00
2023-01-29T02:10:12.962Z,8.38
2023-01-29T02:12:41.133Z,10.95
2023-01-29T02:15:09.867Z,10.43
2023-01-29T02:17:38.942Z,11.40
2023-01-29T02:20:10.067Z,11.43
2023-01-29T02:23:03.639Z,8.80
2023-01-29T02:26:05.599Z,10.38
2023-01-29T02:28:54.665Z,11.02
2023-01-29T02:31:29.547Z,11.48
2023-01-29T02:34:21.177Z,10.65
2023-01-29T02:37:03.546Z,11.45
2023-01-29T02:39:37.756Z,10.85
2023-01-29T02:42:28.089Z,11.15
2023-01-29T02:45:14.339Z,11.57
2023-01-29T02:47:47.836Z,11.05
2023-01-29T02:50:20.657Z,10.73
2023-01-29T02:53:01.745Z,10.38
2023-01-29T02:55:33.879Z,10.70
2023-01-29T02:58:07.798Z,10.50
2023-01-29T03:00:38.406Z,11.90
2023-01-29T03:03:19.771Z,11.93
2023-01-29T03:06:12.404Z,10.10
2023-01-29T03:08:43.223Z,11.75
2023-01-29T03:11:15.335Z,11.30
2023-01-29T03:13:52.953Z,12.05
2023-01-29T03:16:31.183Z,11.60
2023-01-29T03:19:17.437Z,10.55
2023-01-29T03:21:55.435Z,11.27
2023-01-29T08:08:28.091Z,13.02
2023-01-29T08:11:05.965Z,12.43
2023-01-29T08:13:33.927Z,13.18
2023-01-29T08:16:04.146Z,12.93
2023-01-29T08:18:32.917Z,13.63
2023-01-29T08:21:02.135Z,13.23
2023-01-29T08:23:32.146Z,13.18
2023-01-29T08:26:00.033Z,14.02
2023-01-29T08:28:27.779Z,12.98
2023-01-29T08:30:55.488Z,13.68
2023-01-29T08:33:38.087Z,15.10
2023-01-29T08:36:08.007Z,10.82
2023-01-29T08:38:36.502Z,12.30
2023-01-29T08:41:07.810Z,14.13
2023-01-29T08:43:40.022Z,17.40
2023-01-29T08:46:07.809Z,12.65
2023-01-29T08:48:35.465Z,13.52
2023-01-29T08:51:04.587Z,12.02
2023-01-29T08:53:32.548Z,13.55
2023-01-29T08:56:00.712Z,12.27
2023-01-29T08:58:28.246Z,16.05
2023-01-29T09:00:55.969Z,13.50
2023-01-29T09:03:24.629Z,14.63
2023-01-29T09:05:52.300Z,10.57
2023-01-29T09:08:20.501Z,10.70
2023-01-29T09:10:48.157Z,13.85
2023-01-29T09:13:15.768Z,14.70
2023-01-29T09:15:43.481Z,13.77
2023-01-29T09:18:11.180Z,13.88
2023-01-29T09:20:39.196Z,16.52
2023-01-29T09:23:07.708Z,13.75
2023-01-29T09:38:23.669Z,15.43
2023-01-29T09:41:09.461Z,13.00
2023-01-29T11:45:23.060Z,22.10
2023-01-29T11:47:53.010Z,20.30
2023-01-29T11:50:25.222Z,22.35
2023-01-29T11:52:52.781Z,17.38
2023-01-29T11:55:21.616Z,16.92
2023-01-29T11:58:02.147Z,15.85
2023-01-29T12:00:34.548Z,19.60
2023-01-29T12:03:24.891Z,12.55
2023-01-29T12:06:04.053Z,17.60
2023-01-29T12:08:36.701Z,16.23
2023-01-29T12:11:13.256Z,17.77
2023-01-29T12:13:43.454Z,18.75
2023-01-29T12:16:25.795Z,18.13
2023-01-29T12:19:07.524Z,15.35
2023-01-29T12:21:37.565Z,19.13
2023-01-29T12:24:21.650Z,12.95
2023-01-29T12:27:17.224Z,17.23
2023-01-29T12:29:57.117Z,18.25
2023-01-29T12:32:43.548Z,17.98
2023-01-29T12:35:11.165Z,16.88
2023-01-29T12:38:09.302Z,14.60
2023-01-29T12:41:21.783Z,14.48
2023-01-29T12:55:29.732Z,15.38
2023-01-29T12:57:58.905Z,17.67
2023-01-29T13:00:32.633Z,16.00
2023-01-29T13:03:22.071Z,14.70
2023-01-29T13:05:55.567Z,14.38
2023-01-29T13:08:32.939Z,17.27
2023-01-29T13:11:04.163Z,15.05
2023-01-29T13:13:54.042Z,15.48
2023-01-29T13:16:30.958Z,15.57
2023-01-29T13:19:00.119Z,11.88
2023-01-29T13:21:31.144Z,14.93
2023-01-29T13:24:02.665Z,12.23
2023-01-29T13:26:32.809Z,15.85
2023-01-29T13:29:01.666Z,12.40
2023-01-29T13:31:29.451Z,12.63
2023-01-29T13:34:14.235Z,15.70
2023-01-29T13:36:46.681Z,14.32
2023-01-29T13:39:27.388Z,13.70
2023-01-29T13:41:55.487Z,8.95
2023-01-29T13:44:24.341Z,14.40
2023-01-29T13:46:59.443Z,13.80
2023-01-29T13:49:32.153Z,15.90
2023-01-29T13:52:00.185Z,16.42
2023-01-29T13:54:28.206Z,11.85
2023-01-29T13:57:02.189Z,16.17
2023-01-29T13:59:51.023Z,16.88
2023-01-29T14:02:25.952Z,15.23
2023-01-29T14:05:31.440Z,13.43
2023-01-29T14:08:29.236Z,12.68
2023-01-29T14:11:15.425Z,16.17
2023-01-29T14:13:44.413Z,16.33
2023-01-29T14:16:12.738Z,16.40
2023-01-29T14:18:55.526Z,17.20
2023-01-29T14:21:25.495Z,15.45
2023-01-29T14:23:59.130Z,17.55
2023-01-29T14:26:35.117Z,17.50
2023-01-29T14:29:08.239Z,25.15
2023-01-29T14:31:41.828Z,19.30
2023-01-29T14:34:24.344Z,17.60
2023-01-29T14:36:55.715Z,18.10
2023-01-29T14:39:53.814Z,19.45
2023-01-29T14:42:21.323Z,21.45
2023-01-29T14:45:15.511Z,18.50
2023-01-29T14:47:46.419Z,13.10
2023-01-29T14:50:29.310Z,16.00
2023-01-29T14:53:24.652Z,15.82
2023-01-29T14:56:02.130Z,14.60
2023-01-29T14:58:42.934Z,16.52
2023-01-29T15:01:29.632Z,15.68
2023-01-29T15:04:04.144Z,14.95
2023-01-29T15:06:45.968Z,17.00
2023-01-29T15:09:16.665Z,16.55
2023-01-29T15:12:31.793Z,18.60
2023-01-29T15:15:12.312Z,16.48
2023-01-29T15:17:59.230Z,15.07
2023-01-29T15:20:32.040Z,9.82
2023-01-29T15:23:00.995Z,16.27
2023-01-29T15:25:29.794Z,16.40
2023-01-29T15:27:57.352Z,15.27
2023-01-29T15:30:29.378Z,16.67
2023-01-29T15:32:56.957Z,17.60
2023-01-29T15:35:43.027Z,17.55
2023-01-29T15:38:19.449Z,17.85
2023-01-29T15:41:03.846Z,15.52
2023-01-29T15:43:35.300Z,14.68
2023-01-29T15:46:10.829Z,15.65
2023-01-29T15:48:40.686Z,12.73
2023-01-29T15:51:08.801Z,15.05
2023-01-29T15:53:38.773Z,13.93
2023-01-29T15:56:10.682Z,17.73
2023-01-29T15:58:38.594Z,18.10
2023-01-29T16:01:06.552Z,18.95
2023-01-29T16:03:34.391Z,18.73
2023-01-29T16:06:02.348Z,18.55
2023-01-29T16:08:30.091Z,16.42
2023-01-29T16:11:05.164Z,16.50
2023-01-29T16:13:37.153Z,17.30
2023-01-29T16:16:16.420Z,19.48
2023-01-29T16:18:58.956Z,18.02
2023-01-29T16:21:37.654Z,15.32
2023-01-29T16:24:16.050Z,16.92
2023-01-29T16:26:45.260Z,16.70
2023-01-29T16:29:17.452Z,17.17
2023-01-29T16:31:45.944Z,18.80
2023-01-29T16:34:27.849Z,18.70
2023-01-29T16:36:55.724Z,13.82
2023-01-29T16:39:28.297Z,15.38
2023-01-29T16:42:12.414Z,17.35
2023-01-29T16:44:40.290Z,17.30
2023-01-29T16:47:23.998Z,14.98
2023-01-29T16:49:55.971Z,17.42
2023-01-29T16:52:31.536Z,16.20
2023-01-29T16:55:00.912Z,19.40
2023-01-29T16:57:31.678Z,16.42
2023-01-29T17:00:03.804Z,16.65
2023-01-29T17:02:35.657Z,16.25
2023-01-29T17:05:10.990Z,17.15
2023-01-29T17:07:39.909Z,18.08
2023-01-29T17:10:07.879Z,16.25
2023-01-29T17:12:38.903Z,14.60
2023-01-29T17:15:29.313Z,15.30
2023-01-29T17:17:57.119Z,13.48
2023-01-29T17:20:24.794Z,13.70
2023-01-29T17:22:52.805Z,13.82
2023-01-29T17:25:24.584Z,13.38
2023-01-29T17:27:52.647Z,13.27
2023-01-29T17:30:21.784Z,9.15
2023-01-29T17:32:49.499Z,13.63
2023-01-29T17:35:17.656Z,12.07
2023-01-29T17:37:45.749Z,13.15
2023-01-29T17:40:27.657Z,12.80
2023-01-29T17:42:55.454Z,11.00
2023-01-29T17:45:23.212Z,10.35
2023-01-29T17:47:54.067Z,11.75
2023-01-29T17:50:23.632Z,10.73
2023-01-29T17:52:51.191Z,12.55
2023-01-29T17:55:19.341Z,11.73
2023-01-29T17:57:47.531Z,11.65
2023-01-29T18:00:15.542Z,13.13
2023-01-29T18:02:47.055Z,12.85
2023-01-29T18:05:16.095Z,10.40
2023-01-29T18:07:44.976Z,11.90
2023-01-29T18:10:15.495Z,12.55
2023-01-29T18:12:43.137Z,10.63
2023-01-29T18:15:11.351Z,11.55
2023-01-29T18:17:39.838Z,15.77
2023-01-29T18:20:22.111Z,13.18
2023-01-29T18:22:49.698Z,12.05
2023-01-29T18:25:17.778Z,11.50
2023-01-29T18:27:46.263Z,12.75
2023-01-29T18:30:14.365Z,9.00
2023-01-29T18:32:42.405Z,10.88
2023-01-29T18:35:10.211Z,15.20
2023-01-29T18:37:38.112Z,12.20
2023-01-29T18:40:06.831Z,11.63
2023-01-29T18:42:36.183Z,13.48
2023-01-29T18:45:04.382Z,13.40
2023-01-29T18:47:32.134Z,11.10
2023-01-29T18:50:00.300Z,10.15
2023-01-29T18:52:27.843Z,8.55
2023-01-29T18:54:55.736Z,12.15
2023-01-29T18:58:28.793Z,10.45
2023-01-29T19:00:11.497Z,10.20
2023-01-29T19:02:39.088Z,8.93
2023-01-29T19:05:06.992Z,9.02
2023-01-29T19:07:40.130Z,9.88
2023-01-29T19:10:09.562Z,12.00
2023-01-29T19:12:41.505Z,8.38
2023-01-29T19:15:09.789Z,9.65
2023-01-29T19:17:38.385Z,10.23
2023-01-29T19:20:06.648Z,9.43
2023-01-29T19:22:34.929Z,11.70
2023-01-29T19:25:02.653Z,9.80
2023-01-29T19:27:30.700Z,8.95
2023-01-29T19:29:59.632Z,10.40
2023-01-29T19:32:29.015Z,11.13
2023-01-29T19:34:57.941Z,8.80
2023-01-29T19:37:25.648Z,11.90
2023-01-29T19:39:53.992Z,13.35
2023-01-29T19:42:21.670Z,11.27
2023-01-29T19:44:51.184Z,12.40
2023-01-29T19:47:18.789Z,13.85
2023-01-29T19:49:46.709Z,11.68
2023-01-29T19:52:49.763Z,15.32
2023-01-29T19:55:19.056Z,12.18
2023-01-29T19:57:47.108Z,11.65
2023-01-29T20:00:15.678Z,11.55
2023-01-29T20:02:46.308Z,11.85
2023-01-29T20:05:14.628Z,12.15
2023-01-29T20:07:42.794Z,11.85
2023-01-29T20:10:15.372Z,11.43
2023-01-29T20:12:45.007Z,11.07
2023-01-29T20:15:13.559Z,10.85
2023-01-29T20:17:41.346Z,13.10
2023-01-29T20:20:09.872Z,9.68
2023-01-29T20:22:37.536Z,10.27
2023-01-29T20:25:07.710Z,12.10
2023-01-29T20:27:35.903Z,13.38
2023-01-29T20:30:03.844Z,12.73
2023-01-29T20:32:33.061Z,12.50
2023-01-29T20:35:00.644Z,11.00
2023-01-29T20:37:28.274Z,11.32
2023-01-29T20:39:56.103Z,11.75
2023-01-29T20:42:24.372Z,11.38
2023-01-29T20:44:51.960Z,10.63
2023-01-29T20:47:19.709Z,10.05
2023-01-29T20:49:50.543Z,10.82
2023-01-29T20:52:18.303Z,9.80
2023-01-29T20:54:46.173Z,9.52
2023-01-29T20:57:15.009Z,10.68
2023-01-29T20:59:42.849Z,11.40
2023-01-29T21:02:12.014Z,9.85
2023-01-29T21:04:41.081Z,10.25
2023-01-29T21:07:12.767Z,9.23
2023-01-29T21:09:42.128Z,10.50
2023-01-29T21:12:10.799Z,10.07
2023-01-29T21:14:38.718Z,8.20
2023-01-29T21:17:09.390Z,10.98
2023-01-29T21:19:36.967Z,11.55
2023-01-29T21:22:04.895Z,9.15
2023-01-29T21:24:33.855Z,10.60
2023-01-29T21:27:01.803Z,8.88
2023-01-29T21:29:29.776Z,10.15
2023-01-29T21:31:58.345Z,10.15
2023-01-29T21:34:26.224Z,7.93
2023-01-29T21:36:53.913Z,10.15
2023-01-29T21:39:24.441Z,10.50
2023-01-29T21:42:10.522Z,11.10
2023-01-29T21:44:39.731Z,10.45
2023-01-29T21:47:12.563Z,10.90
2023-01-29T21:49:43.932Z,8.68
2023-01-29T21:52:12.323Z,11.35
2023-01-29T21:54:40.857Z,12.45
2023-01-29T21:57:12.729Z,9.23
2023-01-29T21:59:40.332Z,10.13
2023-01-29T22:02:12.881Z,10.70
2023-01-29T22:04:42.166Z,10.90
2023-01-29T22:07:11.312Z,7.88
